sensor_id;sensor_type;location;lat;lon;timestamp;P1;durP1;ratioP1;P2;durP2;ratioP2
32455;SDS011;18912;43.270;27.942;2023-02-28T00:01:02;8.40;;;4.87;;
32455;SDS011;18912;43.270;27.942;2023-02-28T00:03:27;7.07;;;4.60;;
32455;SDS011;18912;43.270;27.942;2023-02-28T00:05:53;6.73;;;4.77;;
32455;SDS011;18912;43.270;27.942;2023-02-28T00:08:18;12.00;;;5.37;;
32455;SDS011;18912;43.270;27.942;2023-02-28T00:10:44;11.27;;;4.83;;
32455;SDS011;18912;43.270;27.942;2023-02-28T00:13:09;6.87;;;5.27;;
32455;SDS011;18912;43.270;27.942;2023-02-28T00:15:35;7.53;;;5.63;;
32455;SDS011;18912;43.270;27.942;2023-02-28T00:18:01;7.30;;;4.93;;
32455;SDS011;18912;43.270;27.942;2023-02-28T00:20:28;7.43;;;5.50;;
32455;SDS011;18912;43.270;27.942;2023-02-28T00:22:54;8.63;;;5.28;;
32455;SDS011;18912;43.270;27.942;2023-02-28T00:25:21;7.63;;;5.13;;
32455;SDS011;18912;43.270;27.942;2023-02-28T00:27:48;8.40;;;5.78;;
32455;SDS011;18912;43.270;27.942;2023-02-28T00:30:18;7.53;;;4.93;;
32455;SDS011;18912;43.270;27.942;2023-02-28T00:32:44;6.70;;;4.88;;
32455;SDS011;18912;43.270;27.942;2023-02-28T00:35:10;7.80;;;4.82;;
32455;SDS011;18912;43.270;27.942;2023-02-28T00:37:37;7.70;;;4.90;;
32455;SDS011;18912;43.270;27.942;2023-02-28T00:40:02;8.40;;;5.40;;
32455;SDS011;18912;43.270;27.942;2023-02-28T00:42:32;7.25;;;5.15;;
32455;SDS011;18912;43.270;27.942;2023-02-28T00:44:58;6.07;;;4.47;;
32455;SDS011;18912;43.270;27.942;2023-02-28T00:47:23;8.43;;;5.40;;
32455;SDS011;18912;43.270;27.942;2023-02-28T00:49:49;7.40;;;5.47;;
32455;SDS011;18912;43.270;27.942;2023-02-28T00:52:14;8.27;;;5.40;;
32455;SDS011;18912;43.270;27.942;2023-02-28T00:54:40;9.77;;;6.23;;
32455;SDS011;18912;43.270;27.942;2023-02-28T00:57:05;9.00;;;5.83;;
32455;SDS011;18912;43.270;27.942;2023-02-28T00:59:31;9.50;;;6.10;;
32455;SDS011;18912;43.270;27.942;2023-02-28T01:01:56;9.67;;;5.80;;
32455;SDS011;18912;43.270;27.942;2023-02-28T01:04:22;7.10;;;5.67;;
32455;SDS011;18912;43.270;27.942;2023-02-28T01:06:47;12.43;;;6.40;;
32455;SDS011;18912;43.270;27.942;2023-02-28T01:09:13;7.97;;;5.57;;
32455;SDS011;18912;43.270;27.942;2023-02-28T01:11:38;8.07;;;6.13;;
32455;SDS011;18912;43.270;27.942;2023-02-28T01:14:06;8.80;;;6.00;;
32455;SDS011;18912;43.270;27.942;2023-02-28T01:16:32;9.30;;;6.57;;
32455;SDS011;18912;43.270;27.942;2023-02-28T01:18:58;10.93;;;7.63;;
32455;SDS011;18912;43.270;27.942;2023-02-28T01:21:23;6.68;;;4.63;;
32455;SDS011;18912;43.270;27.942;2023-02-28T01:23:49;10.67;;;7.73;;
32455;SDS011;18912;43.270;27.942;2023-02-28T01:26:21;9.07;;;6.77;;
32455;SDS011;18912;43.270;27.942;2023-02-28T01:28:48;11.02;;;7.82;;
32455;SDS011;18912;43.270;27.942;2023-02-28T01:31:14;9.90;;;6.75;;
32455;SDS011;18912;43.270;27.942;2023-02-28T01:33:40;10.38;;;6.85;;
32455;SDS011;18912;43.270;27.942;2023-02-28T01:36:07;11.80;;;7.47;;
32455;SDS011;18912;43.270;27.942;2023-02-28T01:38:35;9.77;;;6.70;;
32455;SDS011;18912;43.270;27.942;2023-02-28T01:41:01;8.77;;;6.23;;
32455;SDS011;18912;43.270;27.942;2023-02-28T01:43:27;6.87;;;4.90;;
32455;SDS011;18912;43.270;27.942;2023-02-28T01:45:55;10.05;;;6.80;;
32455;SDS011;18912;43.270;27.942;2023-02-28T01:48:24;7.90;;;5.45;;
32455;SDS011;18912;43.270;27.942;2023-02-28T01:50:52;7.30;;;5.47;;
32455;SDS011;18912;43.270;27.942;2023-02-28T01:53:26;8.10;;;5.63;;
32455;SDS011;18912;43.270;27.942;2023-02-28T01:56:04;6.30;;;4.90;;
32455;SDS011;18912;43.270;27.942;2023-02-28T01:58:32;6.80;;;4.68;;
32455;SDS011;18912;43.270;27.942;2023-02-28T02:00:58;8.45;;;5.90;;
32455;SDS011;18912;43.270;27.942;2023-02-28T02:03:23;8.30;;;5.30;;
32455;SDS011;18912;43.270;27.942;2023-02-28T02:05:49;7.53;;;5.10;;
32455;SDS011;18912;43.270;27.942;2023-02-28T02:08:22;9.83;;;5.50;;
32455;SDS011;18912;43.270;27.942;2023-02-28T02:10:54;7.25;;;4.95;;
32455;SDS011;18912;43.270;27.942;2023-02-28T02:27:04;7.50;;;5.47;;
32455;SDS011;18912;43.270;27.942;2023-02-28T02:29:42;6.50;;;4.65;;
32455;SDS011;18912;43.270;27.942;2023-02-28T02:40:38;6.15;;;4.53;;
32455;SDS011;18912;43.270;27.942;2023-02-28T02:43:13;6.25;;;4.20;;
32455;SDS011;18912;43.270;27.942;2023-02-28T02:48:16;6.82;;;4.57;;
32455;SDS011;18912;43.270;27.942;2023-02-28T02:50:46;6.45;;;4.60;;
32455;SDS011;18912;43.270;27.942;2023-02-28T02:53:17;5.30;;;3.95;;
32455;SDS011;18912;43.270;27.942;2023-02-28T02:55:47;5.68;;;4.28;;
32455;SDS011;18912;43.270;27.942;2023-02-28T02:58:19;6.32;;;4.28;;
32455;SDS011;18912;43.270;27.942;2023-02-28T03:00:53;5.72;;;4.07;;
32455;SDS011;18912;43.270;27.942;2023-02-28T03:03:22;7.47;;;4.70;;
32455;SDS011;18912;43.270;27.942;2023-02-28T03:05:54;5.72;;;4.32;;
32455;SDS011;18912;43.270;27.942;2023-02-28T03:08:21;6.10;;;4.55;;
32455;SDS011;18912;43.270;27.942;2023-02-28T03:10:51;4.82;;;3.70;;
32455;SDS011;18912;43.270;27.942;2023-02-28T03:13:37;6.93;;;4.55;;
32455;SDS011;18912;43.270;27.942;2023-02-28T03:16:22;5.82;;;4.50;;
32455;SDS011;18912;43.270;27.942;2023-02-28T03:27:11;7.20;;;5.63;;
32455;SDS011;18912;43.270;27.942;2023-02-28T03:29:47;7.70;;;5.68;;
32455;SDS011;18912;43.270;27.942;2023-02-28T03:32:23;8.20;;;5.72;;
32455;SDS011;18912;43.270;27.942;2023-02-28T03:34:57;9.98;;;6.13;;
32455;SDS011;18912;43.270;27.942;2023-02-28T03:37:30;8.80;;;5.85;;
32455;SDS011;18912;43.270;27.942;2023-02-28T03:40:08;8.95;;;6.40;;
32455;SDS011;18912;43.270;27.942;2023-02-28T03:42:41;8.32;;;6.15;;
32455;SDS011;18912;43.270;27.942;2023-02-28T03:45:32;11.52;;;6.90;;
32455;SDS011;18912;43.270;27.942;2023-02-28T03:48:05;10.80;;;7.25;;
32455;SDS011;18912;43.270;27.942;2023-02-28T03:50:44;9.27;;;6.55;;
32455;SDS011;18912;43.270;27.942;2023-02-28T04:01:35;12.07;;;7.78;;
32455;SDS011;18912;43.270;27.942;2023-02-28T04:04:06;11.75;;;7.75;;
32455;SDS011;18912;43.270;27.942;2023-02-28T04:06:32;11.60;;;7.35;;
32455;SDS011;18912;43.270;27.942;2023-02-28T04:08:59;11.75;;;7.15;;
32455;SDS011;18912;43.270;27.942;2023-02-28T04:11:44;11.05;;;7.65;;
32455;SDS011;18912;43.270;27.942;2023-02-28T04:14:14;12.38;;;7.35;;
32455;SDS011;18912;43.270;27.942;2023-02-28T04:16:41;10.30;;;7.30;;
32455;SDS011;18912;43.270;27.942;2023-02-28T04:19:07;11.68;;;7.63;;
32455;SDS011;18912;43.270;27.942;2023-02-28T04:21:35;14.85;;;7.70;;
32455;SDS011;18912;43.270;27.942;2023-02-28T04:24:07;13.48;;;8.60;;
32455;SDS011;18912;43.270;27.942;2023-02-28T04:26:45;12.80;;;8.68;;
32455;SDS011;18912;43.270;27.942;2023-02-28T04:29:12;13.07;;;7.97;;
32455;SDS011;18912;43.270;27.942;2023-02-28T04:31:42;13.50;;;7.78;;
32455;SDS011;18912;43.270;27.942;2023-02-28T04:34:08;15.30;;;9.33;;
32455;SDS011;18912;43.270;27.942;2023-02-28T04:36:33;11.83;;;8.40;;
32455;SDS011;18912;43.270;27.942;2023-02-28T04:38:59;16.13;;;9.83;;
32455;SDS011;18912;43.270;27.942;2023-02-28T04:41:24;14.90;;;9.27;;
32455;SDS011;18912;43.270;27.942;2023-02-28T04:43:51;15.30;;;9.18;;
32455;SDS011;18912;43.270;27.942;2023-02-28T04:46:17;15.27;;;9.48;;
32455;SDS011;18912;43.270;27.942;2023-02-28T04:48:43;16.35;;;10.40;;
32455;SDS011;18912;43.270;27.942;2023-02-28T04:51:10;17.77;;;10.32;;
32455;SDS011;18912;43.270;27.942;2023-02-28T04:53:37;18.23;;;11.18;;
32455;SDS011;18912;43.270;27.942;2023-02-28T04:56:05;21.73;;;11.80;;
32455;SDS011;18912;43.270;27.942;2023-02-28T04:58:31;22.23;;;12.23;;
32455;SDS011;18912;43.270;27.942;2023-02-28T05:01:04;23.13;;;12.45;;
32455;SDS011;18912;43.270;27.942;2023-02-28T05:03:38;23.80;;;13.82;;
32455;SDS011;18912;43.270;27.942;2023-02-28T05:06:05;22.25;;;13.32;;
32455;SDS011;18912;43.270;27.942;2023-02-28T05:08:32;27.17;;;14.27;;
32455;SDS011;18912;43.270;27.942;2023-02-28T05:10:57;24.80;;;13.97;;
32455;SDS011;18912;43.270;27.942;2023-02-28T05:13:25;26.75;;;14.38;;
32455;SDS011;18912;43.270;27.942;2023-02-28T05:18:17;25.17;;;15.02;;
32455;SDS011;18912;43.270;27.942;2023-02-28T05:20:43;33.23;;;15.77;;
32455;SDS011;18912;43.270;27.942;2023-02-28T05:23:10;29.83;;;15.47;;
32455;SDS011;18912;43.270;27.942;2023-02-28T05:25:37;31.67;;;16.10;;
32455;SDS011;18912;43.270;27.942;2023-02-28T05:28:04;33.63;;;16.85;;
32455;SDS011;18912;43.270;27.942;2023-02-28T05:30:30;35.47;;;17.53;;
32455;SDS011;18912;43.270;27.942;2023-02-28T05:32:56;35.70;;;18.15;;
32455;SDS011;18912;43.270;27.942;2023-02-28T05:35:22;34.20;;;18.48;;
32455;SDS011;18912;43.270;27.942;2023-02-28T05:37:50;40.92;;;17.25;;
32455;SDS011;18912;43.270;27.942;2023-02-28T05:40:15;38.23;;;19.20;;
32455;SDS011;18912;43.270;27.942;2023-02-28T05:42:41;41.78;;;20.63;;
32455;SDS011;18912;43.270;27.942;2023-02-28T05:45:07;60.03;;;22.40;;
32455;SDS011;18912;43.270;27.942;2023-02-28T05:47:33;40.63;;;19.83;;
32455;SDS011;18912;43.270;27.942;2023-02-28T05:49:59;38.80;;;20.27;;
32455;SDS011;18912;43.270;27.942;2023-02-28T05:52:25;39.60;;;19.80;;
32455;SDS011;18912;43.270;27.942;2023-02-28T05:54:50;38.70;;;19.67;;
32455;SDS011;18912;43.270;27.942;2023-02-28T05:57:16;38.13;;;19.50;;
32455;SDS011;18912;43.270;27.942;2023-02-28T05:59:41;37.20;;;19.63;;
32455;SDS011;18912;43.270;27.942;2023-02-28T06:02:14;45.93;;;20.20;;
32455;SDS011;18912;43.270;27.942;2023-02-28T06:04:40;51.15;;;19.95;;
32455;SDS011;18912;43.270;27.942;2023-02-28T06:07:06;36.88;;;19.05;;
32455;SDS011;18912;43.270;27.942;2023-02-28T06:09:33;42.13;;;20.85;;
32455;SDS011;18912;43.270;27.942;2023-02-28T06:11:59;62.10;;;20.87;;
32455;SDS011;18912;43.270;27.942;2023-02-28T06:16:50;40.78;;;21.52;;
32455;SDS011;18912;43.270;27.942;2023-02-28T06:19:16;42.45;;;21.13;;
32455;SDS011;18912;43.270;27.942;2023-02-28T06:21:42;43.97;;;21.23;;
32455;SDS011;18912;43.270;27.942;2023-02-28T06:24:08;41.05;;;21.15;;
32455;SDS011;18912;43.270;27.942;2023-02-28T06:26:33;38.13;;;20.40;;
32455;SDS011;18912;43.270;27.942;2023-02-28T06:28:59;43.57;;;20.83;;
32455;SDS011;18912;43.270;27.942;2023-02-28T06:31:25;42.88;;;19.55;;
32455;SDS011;18912;43.270;27.942;2023-02-28T06:33:51;39.97;;;21.17;;
32455;SDS011;18912;43.270;27.942;2023-02-28T06:36:16;37.73;;;18.90;;
32455;SDS011;18912;43.270;27.942;2023-02-28T06:38:43;39.25;;;19.83;;
32455;SDS011;18912;43.270;27.942;2023-02-28T06:41:09;37.47;;;19.38;;
32455;SDS011;18912;43.270;27.942;2023-02-28T06:43:37;32.88;;;17.08;;
32455;SDS011;18912;43.270;27.942;2023-02-28T06:46:06;34.78;;;16.55;;
32455;SDS011;18912;43.270;27.942;2023-02-28T06:48:33;30.00;;;16.65;;
32455;SDS011;18912;43.270;27.942;2023-02-28T06:51:06;28.10;;;15.35;;
32455;SDS011;18912;43.270;27.942;2023-02-28T06:53:33;34.83;;;16.08;;
32455;SDS011;18912;43.270;27.942;2023-02-28T06:55:59;27.30;;;15.20;;
32455;SDS011;18912;43.270;27.942;2023-02-28T06:58:29;24.92;;;13.60;;
32455;SDS011;18912;43.270;27.942;2023-02-28T07:00:54;23.27;;;13.40;;
32455;SDS011;18912;43.270;27.942;2023-02-28T07:05:46;24.38;;;12.35;;
32455;SDS011;18912;43.270;27.942;2023-02-28T07:08:12;21.13;;;11.73;;
32455;SDS011;18912;43.270;27.942;2023-02-28T07:10:38;19.95;;;11.77;;
32455;SDS011;18912;43.270;27.942;2023-02-28T07:13:04;21.77;;;11.07;;
32455;SDS011;18912;43.270;27.942;2023-02-28T07:17:55;24.75;;;11.82;;
32455;SDS011;18912;43.270;27.942;2023-02-28T07:20:22;19.55;;;11.48;;
32455;SDS011;18912;43.270;27.942;2023-02-28T07:22:48;24.98;;;11.48;;
32455;SDS011;18912;43.270;27.942;2023-02-28T07:25:20;19.20;;;10.90;;
32455;SDS011;18912;43.270;27.942;2023-02-28T07:27:50;19.40;;;10.93;;
32455;SDS011;18912;43.270;27.942;2023-02-28T07:30:15;15.53;;;10.10;;
32455;SDS011;18912;43.270;27.942;2023-02-28T07:32:41;20.33;;;10.35;;
32455;SDS011;18912;43.270;27.942;2023-02-28T07:35:07;17.50;;;10.73;;
32455;SDS011;18912;43.270;27.942;2023-02-28T07:37:32;20.27;;;10.63;;
32455;SDS011;18912;43.270;27.942;2023-02-28T07:40:04;22.05;;;10.30;;
32455;SDS011;18912;43.270;27.942;2023-02-28T07:42:33;17.35;;;9.68;;
32455;SDS011;18912;43.270;27.942;2023-02-28T07:45:00;14.73;;;8.80;;
32455;SDS011;18912;43.270;27.942;2023-02-28T07:47:26;17.77;;;9.30;;
32455;SDS011;18912;43.270;27.942;2023-02-28T07:49:51;26.50;;;10.30;;
32455;SDS011;18912;43.270;27.942;2023-02-28T07:52:17;16.55;;;10.38;;
32455;SDS011;18912;43.270;27.942;2023-02-28T07:54:43;18.80;;;8.97;;
32455;SDS011;18912;43.270;27.942;2023-02-28T07:57:08;18.70;;;10.10;;
32455;SDS011;18912;43.270;27.942;2023-02-28T07:59:34;15.77;;;10.20;;
32455;SDS011;18912;43.270;27.942;2023-02-28T08:01:59;19.07;;;9.47;;
32455;SDS011;18912;43.270;27.942;2023-02-28T08:04:25;11.57;;;7.03;;
32455;SDS011;18912;43.270;27.942;2023-02-28T08:06:51;21.73;;;11.65;;
32455;SDS011;18912;43.270;27.942;2023-02-28T08:09:21;20.23;;;11.35;;
32455;SDS011;18912;43.270;27.942;2023-02-28T08:11:46;19.53;;;11.73;;
32455;SDS011;18912;43.270;27.942;2023-02-28T08:14:12;12.93;;;7.77;;
32455;SDS011;18912;43.270;27.942;2023-02-28T08:16:37;16.63;;;10.30;;
32455;SDS011;18912;43.270;27.942;2023-02-28T08:19:03;14.73;;;9.27;;
32455;SDS011;18912;43.270;27.942;2023-02-28T08:21:29;17.30;;;10.50;;
32455;SDS011;18912;43.270;27.942;2023-02-28T08:23:54;19.80;;;10.13;;
32455;SDS011;18912;43.270;27.942;2023-02-28T08:26:21;15.70;;;9.48;;
32455;SDS011;18912;43.270;27.942;2023-02-28T08:28:47;16.83;;;9.65;;
32455;SDS011;18912;43.270;27.942;2023-02-28T08:31:14;13.43;;;8.43;;
32455;SDS011;18912;43.270;27.942;2023-02-28T08:33:41;14.85;;;8.98;;
32455;SDS011;18912;43.270;27.942;2023-02-28T08:36:09;17.55;;;8.80;;
32455;SDS011;18912;43.270;27.942;2023-02-28T08:38:36;15.93;;;9.30;;
32455;SDS011;18912;43.270;27.942;2023-02-28T08:41:03;16.20;;;9.95;;
32455;SDS011;18912;43.270;27.942;2023-02-28T08:43:32;12.73;;;8.63;;
32455;SDS011;18912;43.270;27.942;2023-02-28T08:45:58;21.15;;;9.23;;
32455;SDS011;18912;43.270;27.942;2023-02-28T08:48:27;16.27;;;8.87;;
32455;SDS011;18912;43.270;27.942;2023-02-28T08:53:26;15.57;;;8.45;;
32455;SDS011;18912;43.270;27.942;2023-02-28T08:55:56;16.07;;;9.00;;
32455;SDS011;18912;43.270;27.942;2023-02-28T08:58:26;15.43;;;8.75;;
32455;SDS011;18912;43.270;27.942;2023-02-28T09:03:18;15.55;;;8.80;;
32455;SDS011;18912;43.270;27.942;2023-02-28T09:05:57;14.50;;;8.90;;
32455;SDS011;18912;43.270;27.942;2023-02-28T09:08:24;15.80;;;9.27;;
32455;SDS011;18912;43.270;27.942;2023-02-28T09:10:52;17.10;;;9.30;;
32455;SDS011;18912;43.270;27.942;2023-02-28T09:13:19;15.50;;;9.43;;
32455;SDS011;18912;43.270;27.942;2023-02-28T09:15:45;14.30;;;8.83;;
32455;SDS011;18912;43.270;27.942;2023-02-28T09:18:10;15.87;;;9.60;;
32455;SDS011;18912;43.270;27.942;2023-02-28T09:20:40;14.40;;;9.30;;
32455;SDS011;18912;43.270;27.942;2023-02-28T09:23:07;17.85;;;10.43;;
32455;SDS011;18912;43.270;27.942;2023-02-28T09:25:33;14.05;;;9.20;;
32455;SDS011;18912;43.270;27.942;2023-02-28T09:27:59;15.57;;;8.55;;
32455;SDS011;18912;43.270;27.942;2023-02-28T09:30:25;14.63;;;9.43;;
32455;SDS011;18912;43.270;27.942;2023-02-28T09:32:51;15.15;;;9.27;;
32455;SDS011;18912;43.270;27.942;2023-02-28T09:35:19;15.80;;;8.32;;
32455;SDS011;18912;43.270;27.942;2023-02-28T09:37:46;16.48;;;8.63;;
32455;SDS011;18912;43.270;27.942;2023-02-28T09:40:13;12.77;;;8.65;;
32455;SDS011;18912;43.270;27.942;2023-02-28T09:42:42;17.35;;;8.63;;
32455;SDS011;18912;43.270;27.942;2023-02-28T09:47:58;13.45;;;8.82;;
32455;SDS011;18912;43.270;27.942;2023-02-28T09:53:02;15.18;;;8.07;;
32455;SDS011;18912;43.270;27.942;2023-02-28T09:55:39;14.55;;;8.73;;
32455;SDS011;18912;43.270;27.942;2023-02-28T10:01:03;13.15;;;8.15;;
32455;SDS011;18912;43.270;27.942;2023-02-28T10:03:42;17.73;;;8.52;;
32455;SDS011;18912;43.270;27.942;2023-02-28T10:06:22;13.98;;;7.43;;
32455;SDS011;18912;43.270;27.942;2023-02-28T10:08:58;11.13;;;7.30;;
32455;SDS011;18912;43.270;27.942;2023-02-28T10:11:26;14.45;;;7.55;;
32455;SDS011;18912;43.270;27.942;2023-02-28T10:13:59;12.63;;;7.28;;
32455;SDS011;18912;43.270;27.942;2023-02-28T10:16:41;13.85;;;7.70;;
32455;SDS011;18912;43.270;27.942;2023-02-28T10:19:28;13.95;;;7.60;;
32455;SDS011;18912;43.270;27.942;2023-02-28T10:24:35;7.27;;;4.47;;
32455;SDS011;18912;43.270;27.942;2023-02-28T10:27:15;14.48;;;7.18;;
32455;SDS011;18912;43.270;27.942;2023-02-28T10:29:44;11.25;;;6.20;;
32455;SDS011;18912;43.270;27.942;2023-02-28T10:32:15;14.40;;;7.07;;
32455;SDS011;18912;43.270;27.942;2023-02-28T10:34:42;13.05;;;6.95;;
32455;SDS011;18912;43.270;27.942;2023-02-28T10:37:08;9.77;;;6.20;;
32455;SDS011;18912;43.270;27.942;2023-02-28T10:39:42;16.10;;;8.10;;
32455;SDS011;18912;43.270;27.942;2023-02-28T10:45:04;12.13;;;6.78;;
32455;SDS011;18912;43.270;27.942;2023-02-28T10:47:32;14.00;;;7.22;;
32455;SDS011;18912;43.270;27.942;2023-02-28T10:49:59;15.60;;;7.63;;
32455;SDS011;18912;43.270;27.942;2023-02-28T10:52:37;12.33;;;7.53;;
32455;SDS011;18912;43.270;27.942;2023-02-28T10:55:24;15.73;;;7.60;;
32455;SDS011;18912;43.270;27.942;2023-02-28T10:57:50;12.88;;;6.78;;
32455;SDS011;18912;43.270;27.942;2023-02-28T11:00:21;14.63;;;7.47;;
32455;SDS011;18912;43.270;27.942;2023-02-28T11:02:50;11.52;;;7.32;;
32455;SDS011;18912;43.270;27.942;2023-02-28T11:08:02;11.88;;;7.32;;
32455;SDS011;18912;43.270;27.942;2023-02-28T11:10:38;17.52;;;7.88;;
32455;SDS011;18912;43.270;27.942;2023-02-28T11:13:04;13.73;;;7.80;;
32455;SDS011;18912;43.270;27.942;2023-02-28T11:15:31;11.23;;;7.03;;
32455;SDS011;18912;43.270;27.942;2023-02-28T11:18:05;12.70;;;7.68;;
32455;SDS011;18912;43.270;27.942;2023-02-28T11:20:50;12.00;;;7.78;;
32455;SDS011;18912;43.270;27.942;2023-02-28T11:23:17;12.88;;;7.45;;
32455;SDS011;18912;43.270;27.942;2023-02-28T11:25:49;11.65;;;7.15;;
32455;SDS011;18912;43.270;27.942;2023-02-28T11:28:26;14.00;;;8.00;;
32455;SDS011;18912;43.270;27.942;2023-02-28T11:33:37;13.10;;;7.95;;
32455;SDS011;18912;43.270;27.942;2023-02-28T11:36:14;14.52;;;7.07;;
32455;SDS011;18912;43.270;27.942;2023-02-28T11:38:41;11.30;;;7.57;;
32455;SDS011;18912;43.270;27.942;2023-02-28T11:46:45;15.23;;;8.45;;
32455;SDS011;18912;43.270;27.942;2023-02-28T11:51:59;14.10;;;7.47;;
32455;SDS011;18912;43.270;27.942;2023-02-28T12:02:42;13.68;;;8.20;;
32455;SDS011;18912;43.270;27.942;2023-02-28T12:08:23;16.13;;;7.35;;
32455;SDS011;18912;43.270;27.942;2023-02-28T12:10:50;12.98;;;7.63;;
32455;SDS011;18912;43.270;27.942;2023-02-28T12:16:24;12.73;;;8.33;;
32455;SDS011;18912;43.270;27.942;2023-02-28T12:19:12;18.92;;;8.60;;
32455;SDS011;18912;43.270;27.942;2023-02-28T12:27:44;15.57;;;9.13;;
32455;SDS011;18912;43.270;27.942;2023-02-28T12:32:43;19.40;;;9.52;;
32455;SDS011;18912;43.270;27.942;2023-02-28T12:35:13;16.70;;;9.40;;
32455;SDS011;18912;43.270;27.942;2023-02-28T12:40:18;14.18;;;8.57;;
32455;SDS011;18912;43.270;27.942;2023-02-28T12:42:47;15.35;;;9.80;;
32455;SDS011;18912;43.270;27.942;2023-02-28T12:45:20;19.17;;;9.82;;
32455;SDS011;18912;43.270;27.942;2023-02-28T12:47:52;19.75;;;10.70;;
32455;SDS011;18912;43.270;27.942;2023-02-28T12:50:22;14.55;;;8.77;;
32455;SDS011;18912;43.270;27.942;2023-02-28T12:53:52;16.90;;;10.00;;
32455;SDS011;18912;43.270;27.942;2023-02-28T12:56:03;15.45;;;9.98;;
32455;SDS011;18912;43.270;27.942;2023-02-28T13:09:31;18.73;;;11.25;;
32455;SDS011;18912;43.270;27.942;2023-02-28T13:11:57;19.85;;;11.30;;
32455;SDS011;18912;43.270;27.942;2023-02-28T13:14:24;18.55;;;10.93;;
32455;SDS011;18912;43.270;27.942;2023-02-28T13:17:00;22.17;;;11.35;;
32455;SDS011;18912;43.270;27.942;2023-02-28T13:19:37;22.15;;;12.40;;
32455;SDS011;18912;43.270;27.942;2023-02-28T13:22:15;21.92;;;12.02;;
32455;SDS011;18912;43.270;27.942;2023-02-28T13:24:54;24.20;;;11.82;;
32455;SDS011;18912;43.270;27.942;2023-02-28T13:29:50;21.13;;;12.82;;
32455;SDS011;18912;43.270;27.942;2023-02-28T13:32:19;25.73;;;11.88;;
32455;SDS011;18912;43.270;27.942;2023-02-28T13:39:53;20.83;;;12.27;;
32455;SDS011;18912;43.270;27.942;2023-02-28T13:45:28;27.52;;;13.02;;
32455;SDS011;18912;43.270;27.942;2023-02-28T13:50:52;23.58;;;13.05;;
32455;SDS011;18912;43.270;27.942;2023-02-28T13:53:26;26.50;;;12.73;;
32455;SDS011;18912;43.270;27.942;2023-02-28T13:58:56;24.27;;;12.40;;
32455;SDS011;18912;43.270;27.942;2023-02-28T14:06:53;30.10;;;13.40;;
32455;SDS011;18912;43.270;27.942;2023-02-28T14:09:24;31.00;;;14.07;;
32455;SDS011;18912;43.270;27.942;2023-02-28T14:11:52;28.17;;;13.77;;
32455;SDS011;18912;43.270;27.942;2023-02-28T14:15:23;25.38;;;13.23;;
32455;SDS011;18912;43.270;27.942;2023-02-28T14:17:14;26.55;;;13.23;;
32455;SDS011;18912;43.270;27.942;2023-02-28T14:19:44;25.30;;;13.38;;
32455;SDS011;18912;43.270;27.942;2023-02-28T14:22:18;29.92;;;13.05;;
32455;SDS011;18912;43.270;27.942;2023-02-28T14:30:29;26.38;;;13.95;;
32455;SDS011;18912;43.270;27.942;2023-02-28T14:39:07;26.88;;;13.73;;
32455;SDS011;18912;43.270;27.942;2023-02-28T14:41:36;28.80;;;13.27;;
32455;SDS011;18912;43.270;27.942;2023-02-28T14:46:49;29.45;;;13.55;;
32455;SDS011;18912;43.270;27.942;2023-02-28T14:52:05;28.17;;;13.32;;
32455;SDS011;18912;43.270;27.942;2023-02-28T14:54:31;32.13;;;16.35;;
32455;SDS011;18912;43.270;27.942;2023-02-28T14:56:57;28.38;;;13.55;;
32455;SDS011;18912;43.270;27.942;2023-02-28T14:59:24;26.03;;;13.00;;
32455;SDS011;18912;43.270;27.942;2023-02-28T15:04:51;31.25;;;13.40;;
32455;SDS011;18912;43.270;27.942;2023-02-28T15:07:19;29.02;;;13.20;;
32455;SDS011;18912;43.270;27.942;2023-02-28T15:13:05;30.65;;;13.65;;
32455;SDS011;18912;43.270;27.942;2023-02-28T15:15:35;28.67;;;13.40;;
32455;SDS011;18912;43.270;27.942;2023-02-28T15:18:05;28.95;;;13.07;;
32455;SDS011;18912;43.270;27.942;2023-02-28T15:20:32;33.15;;;13.20;;
32455;SDS011;18912;43.270;27.942;2023-02-28T15:23:00;30.27;;;13.52;;
32455;SDS011;18912;43.270;27.942;2023-02-28T15:25:26;27.10;;;13.07;;
32455;SDS011;18912;43.270;27.942;2023-02-28T15:27:53;22.92;;;9.27;;
32455;SDS011;18912;43.270;27.942;2023-02-28T15:30:25;26.75;;;13.82;;
32455;SDS011;18912;43.270;27.942;2023-02-28T15:35:41;24.75;;;13.35;;
32455;SDS011;18912;43.270;27.942;2023-02-28T15:40:50;29.23;;;13.30;;
32455;SDS011;18912;43.270;27.942;2023-02-28T15:43:39;26.10;;;12.52;;
32455;SDS011;18912;43.270;27.942;2023-02-28T15:51:17;28.38;;;13.75;;
32455;SDS011;18912;43.270;27.942;2023-02-28T15:53:47;30.80;;;12.63;;
32455;SDS011;18912;43.270;27.942;2023-02-28T15:56:35;34.47;;;13.95;;
32455;SDS011;18912;43.270;27.942;2023-02-28T15:59:14;27.73;;;12.80;;
32455;SDS011;18912;43.270;27.942;2023-02-28T16:01:42;24.73;;;12.50;;
32455;SDS011;18912;43.270;27.942;2023-02-28T16:04:15;29.60;;;13.37;;
32455;SDS011;18912;43.270;27.942;2023-02-28T16:06:46;31.20;;;14.75;;
32455;SDS011;18912;43.270;27.942;2023-02-28T16:09:25;33.28;;;13.10;;
32455;SDS011;18912;43.270;27.942;2023-02-28T16:11:52;34.50;;;13.27;;
32455;SDS011;18912;43.270;27.942;2023-02-28T16:14:21;23.88;;;13.50;;
32455;SDS011;18912;43.270;27.942;2023-02-28T16:16:50;31.90;;;14.45;;
32455;SDS011;18912;43.270;27.942;2023-02-28T16:19:17;25.52;;;12.40;;
32455;SDS011;18912;43.270;27.942;2023-02-28T16:21:43;25.15;;;12.88;;
32455;SDS011;18912;43.270;27.942;2023-02-28T16:24:10;29.27;;;13.55;;
32455;SDS011;18912;43.270;27.942;2023-02-28T16:26:35;32.97;;;14.15;;
32455;SDS011;18912;43.270;27.942;2023-02-28T16:29:04;26.77;;;13.05;;
32455;SDS011;18912;43.270;27.942;2023-02-28T16:31:30;28.73;;;13.90;;
32455;SDS011;18912;43.270;27.942;2023-02-28T16:34:00;29.73;;;14.23;;
32455;SDS011;18912;43.270;27.942;2023-02-28T16:36:26;29.60;;;13.83;;
32455;SDS011;18912;43.270;27.942;2023-02-28T16:41:20;29.27;;;13.10;;
32455;SDS011;18912;43.270;27.942;2023-02-28T16:43:47;28.17;;;12.98;;
32455;SDS011;18912;43.270;27.942;2023-02-28T16:46:15;29.38;;;13.35;;
32455;SDS011;18912;43.270;27.942;2023-02-28T16:48:41;31.30;;;12.88;;
32455;SDS011;18912;43.270;27.942;2023-02-28T16:53:36;30.27;;;12.75;;
32455;SDS011;18912;43.270;27.942;2023-02-28T16:56:02;30.10;;;13.00;;
32455;SDS011;18912;43.270;27.942;2023-02-28T16:58:27;27.57;;;12.17;;
32455;SDS011;18912;43.270;27.942;2023-02-28T17:00:53;28.43;;;12.40;;
32455;SDS011;18912;43.270;27.942;2023-02-28T17:03:20;25.50;;;12.27;;
32455;SDS011;18912;43.270;27.942;2023-02-28T17:05:48;28.13;;;13.85;;
32455;SDS011;18912;43.270;27.942;2023-02-28T17:08:14;26.90;;;12.93;;
32455;SDS011;18912;43.270;27.942;2023-02-28T17:10:39;36.17;;;12.67;;
32455;SDS011;18912;43.270;27.942;2023-02-28T17:13:05;31.23;;;12.37;;
32455;SDS011;18912;43.270;27.942;2023-02-28T17:15:32;30.98;;;12.68;;
32455;SDS011;18912;43.270;27.942;2023-02-28T17:17:58;27.23;;;12.03;;
32455;SDS011;18912;43.270;27.942;2023-02-28T17:20:24;32.57;;;12.23;;
32455;SDS011;18912;43.270;27.942;2023-02-28T17:22:51;31.25;;;12.48;;
32455;SDS011;18912;43.270;27.942;2023-02-28T17:25:21;28.30;;;13.23;;
32455;SDS011;18912;43.270;27.942;2023-02-28T17:27:48;32.33;;;12.68;;
32455;SDS011;18912;43.270;27.942;2023-02-28T17:30:17;30.77;;;12.70;;